sensor_id;sensor_type;location;lat;lon;timestamp;pressure;altitude;pressure_sealevel;temperature;humidity
61568;BME280;47462;59.172;17.196;2024-02-23T00:01:26;98330.59;;;3.37;100.00
61568;BME280;47462;59.172;17.196;2024-02-23T00:03:51;98328.91;;;3.36;100.00
61568;BME280;47462;59.172;17.196;2024-02-23T00:06:17;98327.19;;;3.37;100.00
61568;BME280;47462;59.172;17.196;2024-02-23T00:08:43;98321.97;;;3.38;100.00
61568;BME280;47462;59.172;17.196;2024-02-23T00:11:09;98324.56;;;3.38;100.00
61568;BME280;47462;59.172;17.196;2024-02-23T00:13:35;98311.66;;;3.38;100.00
61568;BME280;47462;59.172;17.196;2024-02-23T00:16:01;98309.97;;;3.37;100.00
61568;BME280;47462;59.172;17.196;2024-02-23T00:18:26;98315.97;;;3.38;100.00
61568;BME280;47462;59.172;17.196;2024-02-23T00:20:52;98309.16;;;3.37;100.00
61568;BME280;47462;59.172;17.196;2024-02-23T00:23:17;98306.44;;;3.40;100.00
61568;BME280;47462;59.172;17.196;2024-02-23T00:25:44;98305.59;;;3.39;100.00
61568;BME280;47462;59.172;17.196;2024-02-23T00:28:10;98290.25;;;3.36;100.00
61568;BME280;47462;59.172;17.196;2024-02-23T00:30:35;98282.50;;;3.36;100.00
61568;BME280;47462;59.172;17.196;2024-02-23T00:33:01;98268.84;;;3.34;100.00
61568;BME280;47462;59.172;17.196;2024-02-23T00:35:26;98261.16;;;3.33;100.00
61568;BME280;47462;59.172;17.196;2024-02-23T00:37:52;98242.22;;;3.34;100.00
61568;BME280;47462;59.172;17.196;2024-02-23T00:40:17;98231.00;;;3.35;100.00
61568;BME280;47462;59.172;17.196;2024-02-23T00:42:43;98222.69;;;3.28;100.00
61568;BME280;47462;59.172;17.196;2024-02-23T00:45:08;98230.22;;;3.33;100.00
61568;BME280;47462;59.172;17.196;2024-02-23T00:47:33;98226.72;;;3.35;100.00
61568;BME280;47462;59.172;17.196;2024-02-23T00:50:01;98230.28;;;3.31;100.00
61568;BME280;47462;59.172;17.196;2024-02-23T00:52:26;98241.25;;;3.36;100.00
61568;BME280;47462;59.172;17.196;2024-02-23T00:54:52;98237.06;;;3.34;100.00
61568;BME280;47462;59.172;17.196;2024-02-23T00:57:17;98234.44;;;3.35;100.00
61568;BME280;47462;59.172;17.196;2024-02-23T00:59:47;98224.13;;;3.35;100.00
61568;BME280;47462;59.172;17.196;2024-02-23T01:02:12;98218.16;;;3.33;100.00
61568;BME280;47462;59.172;17.196;2024-02-23T01:04:37;98210.31;;;3.36;100.00
61568;BME280;47462;59.172;17.196;2024-02-23T01:07:03;98202.59;;;3.36;100.00
61568;BME280;47462;59.172;17.196;2024-02-23T01:09:28;98200.00;;;3.36;100.00
61568;BME280;47462;59.172;17.196;2024-02-23T01:11:54;98200.94;;;3.35;100.00
61568;BME280;47462;59.172;17.196;2024-02-23T01:14:19;98191.44;;;3.36;100.00
61568;BME280;47462;59.172;17.196;2024-02-23T01:16:44;98195.66;;;3.38;100.00
61568;BME280;47462;59.172;17.196;2024-02-23T01:19:10;98193.00;;;3.40;100.00
61568;BME280;47462;59.172;17.196;2024-02-23T01:21:35;98182.88;;;3.35;100.00
61568;BME280;47462;59.172;17.196;2024-02-23T01:24:01;98173.41;;;3.36;100.00
61568;BME280;47462;59.172;17.196;2024-02-23T01:26:26;98170.75;;;3.37;100.00
61568;BME280;47462;59.172;17.196;2024-02-23T01:28:52;98154.47;;;3.37;100.00
61568;BME280;47462;59.172;17.196;2024-02-23T01:31:18;98148.44;;;3.36;100.00
61568;BME280;47462;59.172;17.196;2024-02-23T01:33:44;98150.38;;;3.31;100.00
61568;BME280;47462;59.172;17.196;2024-02-23T01:36:09;98136.75;;;3.28;100.00
61568;BME280;47462;59.172;17.196;2024-02-23T01:38:35;98134.91;;;3.31;100.00
61568;BME280;47462;59.172;17.196;2024-02-23T01:41:01;98136.53;;;3.34;100.00
61568;BME280;47462;59.172;17.196;2024-02-23T01:43:27;98121.91;;;3.34;100.00
61568;BME280;47462;59.172;17.196;2024-02-23T01:45:52;98121.00;;;3.35;100.00
61568;BME280;47462;59.172;17.196;2024-02-23T01:48:18;98111.66;;;3.33;100.00
61568;BME280;47462;59.172;17.196;2024-02-23T01:50:44;98108.31;;;3.31;100.00
61568;BME280;47462;59.172;17.196;2024-02-23T01:53:11;98107.44;;;3.30;100.00
61568;BME280;47462;59.172;17.196;2024-02-23T01:55:40;98101.41;;;3.31;100.00
61568;BME280;47462;59.172;17.196;2024-02-23T01:58:06;98097.94;;;3.32;100.00
61568;BME280;47462;59.172;17.196;2024-02-23T02:00:33;98099.53;;;3.35;100.00
61568;BME280;47462;59.172;17.196;2024-02-23T02:02:59;98090.06;;;3.35;100.00
61568;BME280;47462;59.172;17.196;2024-02-23T02:05:25;98098.69;;;3.34;100.00
61568;BME280;47462;59.172;17.196;2024-02-23T02:07:52;98091.09;;;3.31;100.00
61568;BME280;47462;59.172;17.196;2024-02-23T02:10:19;98086.69;;;3.33;100.00
61568;BME280;47462;59.172;17.196;2024-02-23T02:12:45;98095.28;;;3.34;100.00
61568;BME280;47462;59.172;17.196;2024-02-23T02:15:10;98092.84;;;3.31;100.00
61568;BME280;47462;59.172;17.196;2024-02-23T02:17:36;98095.34;;;3.32;100.00
61568;BME280;47462;59.172;17.196;2024-02-23T02:20:02;98096.19;;;3.33;100.00
61568;BME280;47462;59.172;17.196;2024-02-23T02:22:34;98079.91;;;3.32;100.00
61568;BME280;47462;59.172;17.196;2024-02-23T02:25:00;98082.28;;;3.37;100.00
61568;BME280;47462;59.172;17.196;2024-02-23T02:27:26;98083.22;;;3.34;100.00
61568;BME280;47462;59.172;17.196;2024-02-23T02:29:51;98066.16;;;3.32;100.00
61568;BME280;47462;59.172;17.196;2024-02-23T02:32:17;98057.38;;;3.36;100.00
61568;BME280;47462;59.172;17.196;2024-02-23T02:34:43;98060.94;;;3.33;100.00
61568;BME280;47462;59.172;17.196;2024-02-23T02:37:08;98047.16;;;3.34;100.00
61568;BME280;47462;59.172;17.196;2024-02-23T02:39:34;98046.31;;;3.34;100.00
61568;BME280;47462;59.172;17.196;2024-02-23T02:42:00;98038.66;;;3.32;100.00
61568;BME280;47462;59.172;17.196;2024-02-23T02:44:25;98029.94;;;3.35;100.00
61568;BME280;47462;59.172;17.196;2024-02-23T02:46:56;98021.22;;;3.37;100.00
61568;BME280;47462;59.172;17.196;2024-02-23T02:49:21;98012.69;;;3.37;100.00
61568;BME280;47462;59.172;17.196;2024-02-23T02:51:47;98010.22;;;3.34;100.00
61568;BME280;47462;59.172;17.196;2024-02-23T02:54:12;97999.06;;;3.33;100.00
61568;BME280;47462;59.172;17.196;2024-02-23T02:56:42;97998.94;;;3.36;100.00
61568;BME280;47462;59.172;17.196;2024-02-23T02:59:08;97995.59;;;3.34;100.00
61568;BME280;47462;59.172;17.196;2024-02-23T03:01:34;97994.75;;;3.34;100.00
61568;BME280;47462;59.172;17.196;2024-02-23T03:03:59;97983.53;;;3.35;100.00
61568;BME280;47462;59.172;17.196;2024-02-23T03:06:25;97980.88;;;3.36;100.00
61568;BME280;47462;59.172;17.196;2024-02-23T03:08:51;97979.16;;;3.37;100.00
61568;BME280;47462;59.172;17.196;2024-02-23T03:11:16;97973.16;;;3.36;100.00
61568;BME280;47462;59.172;17.196;2024-02-23T03:13:42;97970.44;;;3.39;100.00
61568;BME280;47462;59.172;17.196;2024-02-23T03:16:17;97964.38;;;3.41;100.00
61568;BME280;47462;59.172;17.196;2024-02-23T03:18:43;97952.25;;;3.43;100.00
61568;BME280;47462;59.172;17.196;2024-02-23T03:21:08;97952.25;;;3.43;100.00
61568;BME280;47462;59.172;17.196;2024-02-23T03:23:35;97935.81;;;3.45;100.00
61568;BME280;47462;59.172;17.196;2024-02-23T03:26:01;97934.13;;;3.44;100.00
61568;BME280;47462;59.172;17.196;2024-02-23T03:28:27;97928.09;;;3.45;100.00
61568;BME280;47462;59.172;17.196;2024-02-23T03:30:53;97934.06;;;3.46;100.00
61568;BME280;47462;59.172;17.196;2024-02-23T03:33:19;97940.03;;;3.48;100.00
61568;BME280;47462;59.172;17.196;2024-02-23T03:35:45;97933.94;;;3.49;100.00
61568;BME280;47462;59.172;17.196;2024-02-23T03:38:10;97925.38;;;3.48;100.00
61568;BME280;47462;59.172;17.196;2024-02-23T03:40:36;97922.19;;;3.43;100.00
61568;BME280;47462;59.172;17.196;2024-02-23T03:43:05;97927.19;;;3.46;100.00
61568;BME280;47462;59.172;17.196;2024-02-23T03:45:31;97924.56;;;3.48;100.00
61568;BME280;47462;59.172;17.196;2024-02-23T03:47:56;97926.47;;;3.43;100.00
61568;BME280;47462;59.172;17.196;2024-02-23T03:50:22;97917.84;;;3.44;100.00
61568;BME280;47462;59.172;17.196;2024-02-23T03:52:47;97909.34;;;3.42;100.00
61568;BME280;47462;59.172;17.196;2024-02-23T03:55:13;97908.44;;;3.43;100.00
61568;BME280;47462;59.172;17.196;2024-02-23T03:57:38;97903.34;;;3.41;100.00
61568;BME280;47462;59.172;17.196;2024-02-23T04:00:04;97900.75;;;3.41;100.00
61568;BME280;47462;59.172;17.196;2024-02-23T04:02:31;97894.03;;;3.38;100.00
61568;BME280;47462;59.172;17.196;2024-02-23T04:04:56;97894.09;;;3.37;100.00
61568;BME280;47462;59.172;17.196;2024-02-23T04:07:22;97898.38;;;3.36;100.00
61568;BME280;47462;59.172;17.196;2024-02-23T04:09:47;97892.28;;;3.39;100.00
61568;BME280;47462;59.172;17.196;2024-02-23T04:12:21;97882.84;;;3.38;100.00
61568;BME280;47462;59.172;17.196;2024-02-23T04:14:46;97884.47;;;3.41;100.00
61568;BME280;47462;59.172;17.196;2024-02-23T04:17:13;97875.91;;;3.40;100.00
61568;BME280;47462;59.172;17.196;2024-02-23T04:19:40;97875.97;;;3.38;100.00
61568;BME280;47462;59.172;17.196;2024-02-23T04:22:06;97863.09;;;3.38;100.00
61568;BME280;47462;59.172;17.196;2024-02-23T04:24:38;97858.63;;;3.42;100.00
61568;BME280;47462;59.172;17.196;2024-02-23T04:27:05;97853.47;;;3.42;100.00
61568;BME280;47462;59.172;17.196;2024-02-23T04:29:31;97849.13;;;3.43;100.00
61568;BME280;47462;59.172;17.196;2024-02-23T04:31:58;97842.47;;;3.38;100.00
61568;BME280;47462;59.172;17.196;2024-02-23T04:34:24;97845.81;;;3.41;100.00
61568;BME280;47462;59.172;17.196;2024-02-23T04:36:50;97844.13;;;3.39;100.00
61568;BME280;47462;59.172;17.196;2024-02-23T04:39:15;97842.31;;;3.42;100.00
61568;BME280;47462;59.172;17.196;2024-02-23T04:41:40;97851.72;;;3.43;100.00
61568;BME280;47462;59.172;17.196;2024-02-23T04:44:06;97851.50;;;3.47;100.00
61568;BME280;47462;59.172;17.196;2024-02-23T04:46:31;97842.19;;;3.45;100.00
61568;BME280;47462;59.172;17.196;2024-02-23T04:48:57;97839.47;;;3.48;100.00
61568;BME280;47462;59.172;17.196;2024-02-23T04:51:22;97837.78;;;3.47;100.00
61568;BME280;47462;59.172;17.196;2024-02-23T04:53:49;97830.94;;;3.46;100.00
61568;BME280;47462;59.172;17.196;2024-02-23T04:56:14;97820.69;;;3.44;100.00
61568;BME280;47462;59.172;17.196;2024-02-23T04:58:39;97815.63;;;3.43;100.00
61568;BME280;47462;59.172;17.196;2024-02-23T05:01:06;97802.72;;;3.43;100.00
61568;BME280;47462;59.172;17.196;2024-02-23T05:03:31;97792.34;;;3.44;100.00
61568;BME280;47462;59.172;17.196;2024-02-23T05:05:57;97781.28;;;3.42;100.00
61568;BME280;47462;59.172;17.196;2024-02-23T05:08:23;97777.81;;;3.43;100.00
61568;BME280;47462;59.172;17.196;2024-02-23T05:10:52;97772.56;;;3.45;100.00
61568;BME280;47462;59.172;17.196;2024-02-23T05:13:18;97782.88;;;3.45;100.00
61568;BME280;47462;59.172;17.196;2024-02-23T05:15:43;97770.75;;;3.47;100.00
61568;BME280;47462;59.172;17.196;2024-02-23T05:18:09;97767.28;;;3.48;100.00
61568;BME280;47462;59.172;17.196;2024-02-23T05:20:34;97751.88;;;3.46;100.00
61568;BME280;47462;59.172;17.196;2024-02-23T05:22:59;97754.53;;;3.45;100.00
61568;BME280;47462;59.172;17.196;2024-02-23T05:25:26;97745.88;;;3.46;100.00
61568;BME280;47462;59.172;17.196;2024-02-23T05:27:52;97748.38;;;3.47;100.00
61568;BME280;47462;59.172;17.196;2024-02-23T05:30:17;97742.47;;;3.45;100.00
61568;BME280;47462;59.172;17.196;2024-02-23T05:32:43;97744.97;;;3.47;100.00
61568;BME280;47462;59.172;17.196;2024-02-23T05:35:09;97740.63;;;3.47;100.00
61568;BME280;47462;59.172;17.196;2024-02-23T05:37:35;97739.66;;;3.50;100.00
61568;BME280;47462;59.172;17.196;2024-02-23T05:40:01;97735.41;;;3.49;100.00
61568;BME280;47462;59.172;17.196;2024-02-23T05:42:29;97727.75;;;3.47;100.00
61568;BME280;47462;59.172;17.196;2024-02-23T05:44:54;97730.31;;;3.47;100.00
61568;BME280;47462;59.172;17.196;2024-02-23T05:47:20;97726.94;;;3.47;100.00
61568;BME280;47462;59.172;17.196;2024-02-23T05:49:46;97723.44;;;3.48;100.00
61568;BME280;47462;59.172;17.196;2024-02-23T05:52:11;97712.44;;;3.44;100.00
61568;BME280;47462;59.172;17.196;2024-02-23T05:54:37;97713.13;;;3.48;100.00
61568;BME280;47462;59.172;17.196;2024-02-23T05:57:03;97715.63;;;3.49;100.00
61568;BME280;47462;59.172;17.196;2024-02-23T05:59:28;97716.38;;;3.51;100.00
61568;BME280;47462;59.172;17.196;2024-02-23T06:01:54;97707.91;;;3.49;100.00
61568;BME280;47462;59.172;17.196;2024-02-23T06:04:23;97696.81;;;3.47;100.00
61568;BME280;47462;59.172;17.196;2024-02-23T06:06:48;97701.00;;;3.50;100.00
61568;BME280;47462;59.172;17.196;2024-02-23T06:09:13;97702.75;;;3.49;100.00
61568;BME280;47462;59.172;17.196;2024-02-23T06:11:39;97697.38;;;3.54;100.00
61568;BME280;47462;59.172;17.196;2024-02-23T06:14:05;97699.03;;;3.55;100.00
61568;BME280;47462;59.172;17.196;2024-02-23T06:16:31;97690.47;;;3.54;100.00
61568;BME280;47462;59.172;17.196;2024-02-23T06:18:57;97687.88;;;3.54;100.00
61568;BME280;47462;59.172;17.196;2024-02-23T06:21:23;97687.81;;;3.56;100.00
61568;BME280;47462;59.172;17.196;2024-02-23T06:23:49;97687.06;;;3.54;100.00
61568;BME280;47462;59.172;17.196;2024-02-23T06:26:14;97668.00;;;3.56;100.00
61568;BME280;47462;59.172;17.196;2024-02-23T06:28:40;97661.94;;;3.57;100.00
61568;BME280;47462;59.172;17.196;2024-02-23T06:31:09;97649.66;;;3.63;100.00
61568;BME280;47462;59.172;17.196;2024-02-23T06:33:35;97647.84;;;3.65;100.00
61568;BME280;47462;59.172;17.196;2024-02-23T06:36:00;97641.75;;;3.66;100.00
61568;BME280;47462;59.172;17.196;2024-02-23T06:38:26;97636.38;;;3.70;100.00
61568;BME280;47462;59.172;17.196;2024-02-23T06:40:52;97640.56;;;3.73;100.00
61568;BME280;47462;59.172;17.196;2024-02-23T06:43:18;97637.00;;;3.75;100.00
61568;BME280;47462;59.172;17.196;2024-02-23T06:45:44;97638.63;;;3.77;100.00
61568;BME280;47462;59.172;17.196;2024-02-23T06:48:09;97634.34;;;3.77;100.00
61568;BME280;47462;59.172;17.196;2024-02-23T06:50:35;97645.41;;;3.79;100.00
61568;BME280;47462;59.172;17.196;2024-02-23T06:53:01;97641.91;;;3.80;100.00
61568;BME280;47462;59.172;17.196;2024-02-23T06:55:27;97635.91;;;3.80;100.00
61568;BME280;47462;59.172;17.196;2024-02-23T06:57:53;97643.41;;;3.84;100.00
61568;BME280;47462;59.172;17.196;2024-02-23T07:00:20;97644.44;;;3.82;100.00
61568;BME280;47462;59.172;17.196;2024-02-23T07:02:47;97641.91;;;3.80;100.00
61568;BME280;47462;59.172;17.196;2024-02-23T07:05:12;97638.56;;;3.78;100.00
61568;BME280;47462;59.172;17.196;2024-02-23T07:07:39;97629.19;;;3.77;100.00
61568;BME280;47462;59.172;17.196;2024-02-23T07:10:06;97636.13;;;3.75;100.00
61568;BME280;47462;59.172;17.196;2024-02-23T07:12:32;97629.25;;;3.75;100.00
61568;BME280;47462;59.172;17.196;2024-02-23T07:14:58;97638.56;;;3.78;100.00
61568;BME280;47462;59.172;17.196;2024-02-23T07:17:23;97634.94;;;3.82;100.00
61568;BME280;47462;59.172;17.196;2024-02-23T07:19:49;97629.84;;;3.81;100.00
61568;BME280;47462;59.172;17.196;2024-02-23T07:22:16;97633.31;;;3.80;100.00
61568;BME280;47462;59.172;17.196;2024-02-23T07:24:43;97630.00;;;3.78;100.00
61568;BME280;47462;59.172;17.196;2024-02-23T07:27:09;97638.41;;;3.81;100.00
61568;BME280;47462;59.172;17.196;2024-02-23T07:29:35;97626.53;;;3.79;100.00
61568;BME280;47462;59.172;17.196;2024-02-23T07:32:01;97624.91;;;3.76;100.00
61568;BME280;47462;59.172;17.196;2024-02-23T07:34:27;97624.03;;;3.77;100.00
61568;BME280;47462;59.172;17.196;2024-02-23T07:36:52;97629.34;;;3.74;100.00
61568;BME280;47462;59.172;17.196;2024-02-23T07:39:18;97630.81;;;3.78;100.00
61568;BME280;47462;59.172;17.196;2024-02-23T07:41:44;97637.81;;;3.76;100.00
61568;BME280;47462;59.172;17.196;2024-02-23T07:44:10;97648.97;;;3.77;100.00
61568;BME280;47462;59.172;17.196;2024-02-23T07:46:35;97654.13;;;3.77;100.00
61568;BME280;47462;59.172;17.196;2024-02-23T07:49:01;97655.06;;;3.75;100.00
61568;BME280;47462;59.172;17.196;2024-02-23T07:51:26;97653.22;;;3.78;100.00
61568;BME280;47462;59.172;17.196;2024-02-23T07:53:52;97649.91;;;3.75;100.00
61568;BME280;47462;59.172;17.196;2024-02-23T07:56:17;97661.53;;;3.83;100.00
61568;BME280;47462;59.172;17.196;2024-02-23T07:58:42;97658.81;;;3.86;100.00
61568;BME280;47462;59.172;17.196;2024-02-23T08:01:08;97655.94;;;3.92;100.00
61568;BME280;47462;59.172;17.196;2024-02-23T08:03:33;97660.09;;;3.95;100.00
61568;BME280;47462;59.172;17.196;2024-02-23T08:05:59;97673.63;;;4.00;100.00
61568;BME280;47462;59.172;17.196;2024-02-23T08:08:26;97675.19;;;4.02;100.00
61568;BME280;47462;59.172;17.196;2024-02-23T08:10:53;97678.63;;;4.03;100.00
61568;BME280;47462;59.172;17.196;2024-02-23T08:13:19;97667.31;;;4.05;100.00
61568;BME280;47462;59.172;17.196;2024-02-23T08:15:45;97678.56;;;4.04;100.00
61568;BME280;47462;59.172;17.196;2024-02-23T08:18:10;97669.88;;;4.05;100.00
61568;BME280;47462;59.172;17.196;2024-02-23T08:20:36;97671.31;;;4.11;100.00
61568;BME280;47462;59.172;17.196;2024-02-23T08:23:01;97665.19;;;4.14;100.00
61568;BME280;47462;59.172;17.196;2024-02-23T08:25:27;97668.66;;;4.13;100.00
61568;BME280;47462;59.172;17.196;2024-02-23T08:27:57;97665.19;;;4.14;100.00
61568;BME280;47462;59.172;17.196;2024-02-23T08:30:24;97658.94;;;4.18;100.00
61568;BME280;47462;59.172;17.196;2024-02-23T08:32:50;97670.84;;;4.20;100.00
61568;BME280;47462;59.172;17.196;2024-02-23T08:35:15;97673.19;;;4.25;100.00
61568;BME280;47462;59.172;17.196;2024-02-23T08:37:40;97685.34;;;4.23;100.00
61568;BME280;47462;59.172;17.196;2024-02-23T08:40:07;97677.53;;;4.24;100.00
61568;BME280;47462;59.172;17.196;2024-02-23T08:42:33;97692.94;;;4.26;100.00
61568;BME280;47462;59.172;17.196;2024-02-23T08:44:58;97699.91;;;4.24;100.00
61568;BME280;47462;59.172;17.196;2024-02-23T08:47:24;97713.75;;;4.23;100.00
61568;BME280;47462;59.172;17.196;2024-02-23T08:49:50;97713.59;;;4.26;100.00
61568;BME280;47462;59.172;17.196;2024-02-23T08:52:15;97715.69;;;4.35;100.00
61568;BME280;47462;59.172;17.196;2024-02-23T08:54:40;97714.84;;;4.35;100.00
61568;BME280;47462;59.172;17.196;2024-02-23T08:57:05;97727.44;;;4.41;100.00
61568;BME280;47462;59.172;17.196;2024-02-23T08:59:31;97713.72;;;4.40;100.00
61568;BME280;47462;59.172;17.196;2024-02-23T09:01:56;97724.38;;;4.50;100.00
61568;BME280;47462;59.172;17.196;2024-02-23T09:04:22;97731.88;;;4.55;100.00
61568;BME280;47462;59.172;17.196;2024-02-23T09:06:47;97740.56;;;4.54;100.00
61568;BME280;47462;59.172;17.196;2024-02-23T09:09:15;97755.38;;;4.50;100.00
61568;BME280;47462;59.172;17.196;2024-02-23T09:11:40;97752.56;;;4.55;100.00
61568;BME280;47462;59.172;17.196;2024-02-23T09:14:06;97749.81;;;4.58;100.00
61568;BME280;47462;59.172;17.196;2024-02-23T09:16:31;97755.34;;;4.68;100.00
61568;BME280;47462;59.172;17.196;2024-02-23T09:18:56;97770.28;;;4.78;100.00
61568;BME280;47462;59.172;17.196;2024-02-23T09:21:22;97773.78;;;4.77;100.00
61568;BME280;47462;59.172;17.196;2024-02-23T09:23:47;97786.53;;;4.80;100.00
61568;BME280;47462;59.172;17.196;2024-02-23T09:26:12;97785.78;;;4.78;100.00
61568;BME280;47462;59.172;17.196;2024-02-23T09:28:38;97794.63;;;4.74;100.00
61568;BME280;47462;59.172;17.196;2024-02-23T09:31:06;97802.81;;;4.82;100.00
61568;BME280;47462;59.172;17.196;2024-02-23T09:33:31;97813.81;;;4.86;100.00
61568;BME280;47462;59.172;17.196;2024-02-23T09:35:57;97816.09;;;4.92;100.00
61568;BME280;47462;59.172;17.196;2024-02-23T09:38:22;97817.84;;;4.92;100.00
61568;BME280;47462;59.172;17.196;2024-02-23T09:40:50;97825.03;;;5.03;100.00
61568;BME280;47462;59.172;17.196;2024-02-23T09:43:16;97825.69;;;5.06;100.00
61568;BME280;47462;59.172;17.196;2024-02-23T09:45:42;97827.56;;;5.20;100.00
61568;BME280;47462;59.172;17.196;2024-02-23T09:48:10;97823.91;;;5.24;100.00
61568;BME280;47462;59.172;17.196;2024-02-23T09:50:37;97829.00;;;5.26;100.00
61568;BME280;47462;59.172;17.196;2024-02-23T09:53:04;97829.06;;;5.40;100.00
61568;BME280;47462;59.172;17.196;2024-02-23T09:55:33;97836.09;;;5.54;100.00
61568;BME280;47462;59.172;17.196;2024-02-23T09:57:59;97841.63;;;5.64;100.00
61568;BME280;47462;59.172;17.196;2024-02-23T10:00:25;97840.25;;;5.72;100.00
61568;BME280;47462;59.172;17.196;2024-02-23T10:02:50;97860.53;;;5.80;100.00
61568;BME280;47462;59.172;17.196;2024-02-23T10:05:16;97854.53;;;5.80;100.00
61568;BME280;47462;59.172;17.196;2024-02-23T10:07:42;97854.06;;;5.73;100.00
61568;BME280;47462;59.172;17.196;2024-02-23T10:10:09;97860.97;;;5.72;100.00
61568;BME280;47462;59.172;17.196;2024-02-23T10:12:36;97874.75;;;5.73;100.00
61568;BME280;47462;59.172;17.196;2024-02-23T10:15:02;97881.66;;;5.72;100.00
61568;BME280;47462;59.172;17.196;2024-02-23T10:17:30;97884.94;;;5.76;100.00
61568;BME280;47462;59.172;17.196;2024-02-23T10:19:55;97894.34;;;5.77;100.00
61568;BME280;47462;59.172;17.196;2024-02-23T10:22:23;97896.69;;;5.82;100.00
61568;BME280;47462;59.172;17.196;2024-02-23T10:24:50;97900.78;;;5.86;100.00
61568;BME280;47462;59.172;17.196;2024-02-23T10:27:16;97909.22;;;5.89;100.00
61568;BME280;47462;59.172;17.196;2024-02-23T10:29:41;97908.56;;;5.86;100.00
61568;BME280;47462;59.172;17.196;2024-02-23T10:32:07;97926.13;;;5.97;100.00
61568;BME280;47462;59.172;17.196;2024-02-23T10:34:36;97933.47;;;6.04;100.00
61568;BME280;47462;59.172;17.196;2024-02-23T10:37:06;97933.13;;;6.11;100.00
61568;BME280;47462;59.172;17.196;2024-02-23T10:39:32;97942.41;;;6.15;100.00
61568;BME280;47462;59.172;17.196;2024-02-23T10:42:03;97942.16;;;6.19;100.00
61568;BME280;47462;59.172;17.196;2024-02-23T10:44:30;97941.75;;;6.11;99.39
61568;BME280;47462;59.172;17.196;2024-02-23T10:46:56;97950.34;;;6.12;99.35
61568;BME280;47462;59.172;17.196;2024-02-23T10:49:24;97954.09;;;6.22;99.37
61568;BME280;47462;59.172;17.196;2024-02-23T10:51:53;97952.00;;;6.29;98.98
61568;BME280;47462;59.172;17.196;2024-02-23T10:54:20;97962.19;;;6.32;98.49
61568;BME280;47462;59.172;17.196;2024-02-23T10:56:49;97972.94;;;6.40;98.43
61568;BME280;47462;59.172;17.196;2024-02-23T10:59:16;97982.22;;;6.44;97.16
61568;BME280;47462;59.172;17.196;2024-02-23T11:01:46;97978.41;;;6.51;96.98
61568;BME280;47462;59.172;17.196;2024-02-23T11:04:15;97994.84;;;6.50;96.64
61568;BME280;47462;59.172;17.196;2024-02-23T11:06:42;97996.34;;;6.54;96.82
61568;BME280;47462;59.172;17.196;2024-02-23T11:09:08;98001.03;;;6.64;95.83
61568;BME280;47462;59.172;17.196;2024-02-23T11:11:34;97995.66;;;6.67;96.12
61568;BME280;47462;59.172;17.196;2024-02-23T11:14:03;97998.09;;;6.70;96.01
61568;BME280;47462;59.172;17.196;2024-02-23T11:16:32;97999.78;;;6.71;94.28
61568;BME280;47462;59.172;17.196;2024-02-23T11:19:06;98005.13;;;6.68;93.87
61568;BME280;47462;59.172;17.196;2024-02-23T11:21:35;98011.88;;;6.70;93.53
61568;BME280;47462;59.172;17.196;2024-02-23T11:24:05;98026.25;;;6.76;93.29
61568;BME280;47462;59.172;17.196;2024-02-23T11:26:31;98016.28;;;6.84;92.62
61568;BME280;47462;59.172;17.196;2024-02-23T11:28:59;98022.44;;;6.97;92.17
61568;BME280;47462;59.172;17.196;2024-02-23T11:31:34;98032.47;;;7.04;91.96
61568;BME280;47462;59.172;17.196;2024-02-23T11:33:59;98046.84;;;7.09;90.66
61568;BME280;47462;59.172;17.196;2024-02-23T11:36:35;98039.53;;;7.16;88.52
61568;BME280;47462;59.172;17.196;2024-02-23T11:39:02;98045.78;;;7.28;87.90
61568;BME280;47462;59.172;17.196;2024-02-23T11:41:29;98050.34;;;7.39;86.53
61568;BME280;47462;59.172;17.196;2024-02-23T11:43:55;98041.28;;;7.46;84.74
61568;BME280;47462;59.172;17.196;2024-02-23T11:46:22;98047.97;;;7.50;85.48
61568;BME280;47462;59.172;17.196;2024-02-23T11:48:49;98052.47;;;7.32;85.92
61568;BME280;47462;59.172;17.196;2024-02-23T11:51:21;98071.81;;;7.26;84.92
61568;BME280;47462;59.172;17.196;2024-02-23T11:53:47;98077.63;;;7.00;82.73
61568;BME280;47462;59.172;17.196;2024-02-23T11:56:13;98088.44;;;7.08;82.66
61568;BME280;47462;59.172;17.196;2024-02-23T11:58:40;98082.56;;;7.04;83.34
61568;BME280;47462;59.172;17.196;2024-02-23T12:01:06;98093.97;;;7.02;83.87
61568;BME280;47462;59.172;17.196;2024-02-23T12:03:32;98098.38;;;7.00;85.64
61568;BME280;47462;59.172;17.196;2024-02-23T12:05:59;98108.91;;;6.96;84.18
61568;BME280;47462;59.172;17.196;2024-02-23T12:08:26;98105.94;;;6.88;83.02
61568;BME280;47462;59.172;17.196;2024-02-23T12:10:55;98117.63;;;6.79;81.74
61568;BME280;47462;59.172;17.196;2024-02-23T12:13:22;98108.28;;;6.77;81.17
61568;BME280;47462;59.172;17.196;2024-02-23T12:15:49;98114.13;;;6.81;80.71
61568;BME280;47462;59.172;17.196;2024-02-23T12:18:18;98105.94;;;6.88;80.64
61568;BME280;47462;59.172;17.196;2024-02-23T12:20:49;98117.03;;;6.90;80.63
61568;BME280;47462;59.172;17.196;2024-02-23T12:23:15;98112.19;;;6.84;79.00
61568;BME280;47462;59.172;17.196;2024-02-23T12:25:51;98126.66;;;6.88;77.33
61568;BME280;47462;59.172;17.196;2024-02-23T12:28:18;98116.53;;;7.00;76.54
61568;BME280;47462;59.172;17.196;2024-02-23T12:30:44;98126.72;;;7.03;76.76
61568;BME280;47462;59.172;17.196;2024-02-23T12:33:15;98139.53;;;7.06;76.30
61568;BME280;47462;59.172;17.196;2024-02-23T12:35:41;98148.41;;;7.02;75.50
61568;BME280;47462;59.172;17.196;2024-02-23T12:38:07;98146.00;;;6.99;77.38
61568;BME280;47462;59.172;17.196;2024-02-23T12:40:33;98164.16;;;6.99;77.38
61568;BME280;47462;59.172;17.196;2024-02-23T12:42:59;98153.44;;;7.05;76.40
61568;BME280;47462;59.172;17.196;2024-02-23T12:45:29;98157.44;;;6.94;75.76
61568;BME280;47462;59.172;17.196;2024-02-23T12:47:55;98164.16;;;6.99;74.41